sensor_id;sensor_type;location;lat;lon;timestamp;pressure;altitude;pressure_sealevel;temperature;humidity
40948;BME280;49382;-25.924;28.194;2022-08-01T00:02:20;85630.27;;;17.44;30.83
40948;BME280;49382;-25.924;28.194;2022-08-01T00:04:45;85635.08;;;17.74;30.92
40948;BME280;49382;-25.924;28.194;2022-08-01T00:07:11;85636.04;;;17.84;30.87
40948;BME280;49382;-25.924;28.194;2022-08-01T00:09:36;85632.66;;;17.57;31.26
40948;BME280;49382;-25.924;28.194;2022-08-01T00:12:02;85636.84;;;17.43;31.64
40948;BME280;49382;-25.924;28.194;2022-08-01T00:14:27;85637.17;;;17.23;31.50
40948;BME280;49382;-25.924;28.194;2022-08-01T00:16:53;85633.84;;;17.55;31.47
40948;BME280;49382;-25.924;28.194;2022-08-01T00:19:18;85629.56;;;17.74;31.02
40948;BME280;49382;-25.924;28.194;2022-08-01T00:21:44;85625.08;;;18.05;31.68
40948;BME280;49382;-25.924;28.194;2022-08-01T00:24:09;85622.70;;;17.86;31.58
40948;BME280;49382;-25.924;28.194;2022-08-01T00:26:37;85620.67;;;18.14;31.00
40948;BME280;49382;-25.924;28.194;2022-08-01T00:29:00;85626.21;;;17.78;31.24
40948;BME280;49382;-25.924;28.194;2022-08-01T00:31:25;85628.69;;;17.53;32.29
40948;BME280;49382;-25.924;28.194;2022-08-01T00:33:50;85633.48;;;18.05;32.15
40948;BME280;49382;-25.924;28.194;2022-08-01T00:36:16;85634.11;;;17.31;32.50
40948;BME280;49382;-25.924;28.194;2022-08-01T00:38:41;85632.37;;;17.73;32.19
40948;BME280;49382;-25.924;28.194;2022-08-01T00:41:07;85627.84;;;17.60;32.19
40948;BME280;49382;-25.924;28.194;2022-08-01T00:43:32;85627.33;;;17.49;31.78
40948;BME280;49382;-25.924;28.194;2022-08-01T00:45:58;85624.54;;;17.13;32.93
40948;BME280;49382;-25.924;28.194;2022-08-01T00:48:23;85629.39;;;16.96;32.75
40948;BME280;49382;-25.924;28.194;2022-08-01T00:50:49;85630.76;;;17.33;32.55
40948;BME280;49382;-25.924;28.194;2022-08-01T00:53:14;85631.35;;;17.32;32.48
40948;BME280;49382;-25.924;28.194;2022-08-01T00:55:40;85634.26;;;17.04;33.18
40948;BME280;49382;-25.924;28.194;2022-08-01T00:58:05;85636.66;;;17.29;32.85
40948;BME280;49382;-25.924;28.194;2022-08-01T01:00:32;85641.82;;;17.40;32.98
40948;BME280;49382;-25.924;28.194;2022-08-01T01:02:56;85645.57;;;16.92;32.98
40948;BME280;49382;-25.924;28.194;2022-08-01T01:05:21;85648.22;;;17.18;33.50
40948;BME280;49382;-25.924;28.194;2022-08-01T01:07:54;85650.16;;;17.15;33.60
40948;BME280;49382;-25.924;28.194;2022-08-01T01:10:17;85650.79;;;17.24;33.18
40948;BME280;49382;-25.924;28.194;2022-08-01T01:12:44;85653.91;;;17.73;33.04
40948;BME280;49382;-25.924;28.194;2022-08-01T01:15:07;85655.81;;;17.75;33.05
40948;BME280;49382;-25.924;28.194;2022-08-01T01:17:35;85663.17;;;17.39;32.68
40948;BME280;49382;-25.924;28.194;2022-08-01T01:19:56;85661.66;;;17.45;33.07
40948;BME280;49382;-25.924;28.194;2022-08-01T01:22:25;85661.06;;;17.07;33.64
40948;BME280;49382;-25.924;28.194;2022-08-01T01:27:18;85662.23;;;17.52;33.38
40948;BME280;49382;-25.924;28.194;2022-08-01T01:29:42;85661.84;;;17.34;33.23
40948;BME280;49382;-25.924;28.194;2022-08-01T01:32:06;85666.12;;;17.34;33.21
40948;BME280;49382;-25.924;28.194;2022-08-01T01:34:28;85667.83;;;17.82;33.34
40948;BME280;49382;-25.924;28.194;2022-08-01T01:36:54;85667.59;;;17.37;33.31
40948;BME280;49382;-25.924;28.194;2022-08-01T01:39:18;85677.74;;;17.48;33.14
40948;BME280;49382;-25.924;28.194;2022-08-01T01:41:45;85682.23;;;17.06;33.22
40948;BME280;49382;-25.924;28.194;2022-08-01T01:44:10;85675.90;;;16.93;33.65
40948;BME280;49382;-25.924;28.194;2022-08-01T01:46:34;85679.10;;;17.76;33.16
40948;BME280;49382;-25.924;28.194;2022-08-01T01:49:00;85677.92;;;17.38;33.44
40948;BME280;49382;-25.924;28.194;2022-08-01T01:51:26;85679.52;;;17.14;33.99
40948;BME280;49382;-25.924;28.194;2022-08-01T01:53:51;85681.19;;;17.24;34.35
40948;BME280;49382;-25.924;28.194;2022-08-01T01:56:17;85684.32;;;17.53;33.58
40948;BME280;49382;-25.924;28.194;2022-08-01T01:58:42;85687.29;;;17.37;33.84
40948;BME280;49382;-25.924;28.194;2022-08-01T02:01:07;85690.65;;;17.54;33.41
40948;BME280;49382;-25.924;28.194;2022-08-01T02:03:33;85688.78;;;17.59;33.32
40948;BME280;49382;-25.924;28.194;2022-08-01T02:05:59;85687.46;;;17.62;33.71
40948;BME280;49382;-25.924;28.194;2022-08-01T02:08:24;85685.82;;;17.63;33.23
40948;BME280;49382;-25.924;28.194;2022-08-01T02:10:52;85682.05;;;17.68;33.72
40948;BME280;49382;-25.924;28.194;2022-08-01T02:13:15;85685.88;;;17.35;33.69
40948;BME280;49382;-25.924;28.194;2022-08-01T02:15:40;85690.60;;;17.79;33.49
40948;BME280;49382;-25.924;28.194;2022-08-01T02:18:06;85692.11;;;17.68;33.40
40948;BME280;49382;-25.924;28.194;2022-08-01T02:20:31;85688.29;;;17.95;33.31
40948;BME280;49382;-25.924;28.194;2022-08-01T02:23:00;85684.24;;;17.56;33.67
40948;BME280;49382;-25.924;28.194;2022-08-01T02:25:23;85679.78;;;18.41;32.76
40948;BME280;49382;-25.924;28.194;2022-08-01T02:27:55;85679.30;;;17.99;33.24
40948;BME280;49382;-25.924;28.194;2022-08-01T02:30:14;85681.47;;;17.76;32.93
40948;BME280;49382;-25.924;28.194;2022-08-01T02:32:41;85679.47;;;17.81;33.36
40948;BME280;49382;-25.924;28.194;2022-08-01T02:35:03;85678.19;;;18.20;33.33
40948;BME280;49382;-25.924;28.194;2022-08-01T02:37:30;85680.23;;;17.70;33.45
40948;BME280;49382;-25.924;28.194;2022-08-01T02:39:54;85675.81;;;17.49;34.45
40948;BME280;49382;-25.924;28.194;2022-08-01T02:42:19;85676.60;;;17.83;33.58
40948;BME280;49382;-25.924;28.194;2022-08-01T02:44:46;85676.22;;;17.23;34.49
40948;BME280;49382;-25.924;28.194;2022-08-01T02:47:10;85677.93;;;16.98;34.78
40948;BME280;49382;-25.924;28.194;2022-08-01T02:49:39;85670.82;;;16.88;34.69
40948;BME280;49382;-25.924;28.194;2022-08-01T02:52:03;85668.05;;;16.73;34.94
40948;BME280;49382;-25.924;28.194;2022-08-01T02:54:27;85671.08;;;17.26;34.22
40948;BME280;49382;-25.924;28.194;2022-08-01T02:56:52;85676.84;;;16.72;35.26
40948;BME280;49382;-25.924;28.194;2022-08-01T02:59:20;85684.53;;;16.57;35.50
40948;BME280;49382;-25.924;28.194;2022-08-01T03:01:44;85679.46;;;17.05;34.82
40948;BME280;49382;-25.924;28.194;2022-08-01T03:04:08;85678.57;;;16.94;35.06
40948;BME280;49382;-25.924;28.194;2022-08-01T03:06:34;85682.98;;;16.54;35.19
40948;BME280;49382;-25.924;28.194;2022-08-01T03:09:01;85680.04;;;17.12;34.62
40948;BME280;49382;-25.924;28.194;2022-08-01T03:11:25;85677.03;;;16.96;34.81
40948;BME280;49382;-25.924;28.194;2022-08-01T03:13:52;85684.75;;;16.11;35.27
40948;BME280;49382;-25.924;28.194;2022-08-01T03:16:16;85679.27;;;16.42;35.42
40948;BME280;49382;-25.924;28.194;2022-08-01T03:18:42;85680.82;;;16.38;35.47
40948;BME280;49382;-25.924;28.194;2022-08-01T03:21:07;85683.56;;;16.34;35.41
40948;BME280;49382;-25.924;28.194;2022-08-01T03:23:32;85684.08;;;16.44;35.35
40948;BME280;49382;-25.924;28.194;2022-08-01T03:25:58;85683.55;;;16.17;35.39
40948;BME280;49382;-25.924;28.194;2022-08-01T03:28:23;85680.75;;;16.44;35.38
40948;BME280;49382;-25.924;28.194;2022-08-01T03:30:49;85684.33;;;16.80;34.83
40948;BME280;49382;-25.924;28.194;2022-08-01T03:33:13;85680.71;;;16.14;35.66
40948;BME280;49382;-25.924;28.194;2022-08-01T03:35:44;85674.99;;;16.86;34.55
40948;BME280;49382;-25.924;28.194;2022-08-01T03:38:05;85675.66;;;16.05;35.84
40948;BME280;49382;-25.924;28.194;2022-08-01T03:40:35;85674.98;;;16.16;35.78
40948;BME280;49382;-25.924;28.194;2022-08-01T03:42:58;85679.39;;;16.20;35.81
40948;BME280;49382;-25.924;28.194;2022-08-01T03:45:22;85677.99;;;15.83;36.39
40948;BME280;49382;-25.924;28.194;2022-08-01T03:47:47;85680.03;;;16.45;35.34
40948;BME280;49382;-25.924;28.194;2022-08-01T03:50:12;85679.53;;;15.86;36.15
40948;BME280;49382;-25.924;28.194;2022-08-01T03:52:39;85682.68;;;16.06;36.22
40948;BME280;49382;-25.924;28.194;2022-08-01T03:55:06;85684.44;;;16.07;35.89
40948;BME280;49382;-25.924;28.194;2022-08-01T03:57:29;85693.01;;;15.88;36.13
40948;BME280;49382;-25.924;28.194;2022-08-01T03:59:54;85700.95;;;16.79;34.84
40948;BME280;49382;-25.924;28.194;2022-08-01T04:02:19;85694.35;;;16.77;34.54
40948;BME280;49382;-25.924;28.194;2022-08-01T04:04:45;85700.52;;;16.63;35.08
40948;BME280;49382;-25.924;28.194;2022-08-01T04:09:35;85704.56;;;16.94;34.41
40948;BME280;49382;-25.924;28.194;2022-08-01T04:12:01;85709.93;;;15.63;36.51
40948;BME280;49382;-25.924;28.194;2022-08-01T04:14:27;85709.05;;;16.15;35.98
40948;BME280;49382;-25.924;28.194;2022-08-01T04:16:52;85709.02;;;16.16;36.09
40948;BME280;49382;-25.924;28.194;2022-08-01T04:19:18;85710.98;;;16.47;35.68
40948;BME280;49382;-25.924;28.194;2022-08-01T04:21:43;85718.58;;;16.15;36.06
40948;BME280;49382;-25.924;28.194;2022-08-01T04:24:12;85722.45;;;16.68;35.24
40948;BME280;49382;-25.924;28.194;2022-08-01T04:26:35;85720.03;;;15.86;36.51
40948;BME280;49382;-25.924;28.194;2022-08-01T04:29:02;85723.42;;;16.10;36.84
40948;BME280;49382;-25.924;28.194;2022-08-01T04:31:26;85728.83;;;15.86;37.20
40948;BME280;49382;-25.924;28.194;2022-08-01T04:33:51;85731.15;;;16.14;36.53
40948;BME280;49382;-25.924;28.194;2022-08-01T04:36:16;85736.61;;;16.05;36.66
40948;BME280;49382;-25.924;28.194;2022-08-01T04:38:42;85739.31;;;16.08;36.24
40948;BME280;49382;-25.924;28.194;2022-08-01T04:41:07;85747.12;;;16.16;35.96
40948;BME280;49382;-25.924;28.194;2022-08-01T04:43:31;85750.26;;;16.37;35.63
40948;BME280;49382;-25.924;28.194;2022-08-01T04:45:58;85753.54;;;15.69;36.76
40948;BME280;49382;-25.924;28.194;2022-08-01T04:48:22;85756.29;;;14.99;38.44
40948;BME280;49382;-25.924;28.194;2022-08-01T04:50:48;85762.86;;;15.98;36.45
40948;BME280;49382;-25.924;28.194;2022-08-01T04:53:15;85767.13;;;15.65;37.70
40948;BME280;49382;-25.924;28.194;2022-08-01T04:55:38;85771.09;;;15.72;37.30
40948;BME280;49382;-25.924;28.194;2022-08-01T04:58:03;85776.85;;;15.85;36.80
40948;BME280;49382;-25.924;28.194;2022-08-01T05:00:29;85782.24;;;16.04;36.45
40948;BME280;49382;-25.924;28.194;2022-08-01T05:02:54;85784.02;;;16.19;36.91
40948;BME280;49382;-25.924;28.194;2022-08-01T05:05:19;85788.65;;;16.65;35.51
40948;BME280;49382;-25.924;28.194;2022-08-01T05:07:45;85790.90;;;16.19;36.30
40948;BME280;49382;-25.924;28.194;2022-08-01T05:10:11;85791.97;;;16.22;36.20
40948;BME280;49382;-25.924;28.194;2022-08-01T05:12:36;85796.08;;;16.45;35.79
40948;BME280;49382;-25.924;28.194;2022-08-01T05:15:02;85795.85;;;16.47;35.62
40948;BME280;49382;-25.924;28.194;2022-08-01T05:17:27;85794.55;;;16.17;36.19
40948;BME280;49382;-25.924;28.194;2022-08-01T05:19:53;85801.37;;;15.96;36.41
40948;BME280;49382;-25.924;28.194;2022-08-01T05:22:18;85805.95;;;15.94;36.79
40948;BME280;49382;-25.924;28.194;2022-08-01T05:24:44;85809.78;;;16.55;36.14
40948;BME280;49382;-25.924;28.194;2022-08-01T05:27:09;85813.68;;;16.15;36.38
40948;BME280;49382;-25.924;28.194;2022-08-01T05:29:35;85813.75;;;16.85;35.25
40948;BME280;49382;-25.924;28.194;2022-08-01T05:32:00;85815.54;;;16.68;35.26
40948;BME280;49382;-25.924;28.194;2022-08-01T05:34:26;85823.24;;;16.51;35.79
40948;BME280;49382;-25.924;28.194;2022-08-01T05:36:51;85822.99;;;16.90;35.37
40948;BME280;49382;-25.924;28.194;2022-08-01T05:39:17;85827.48;;;16.43;36.30
40948;BME280;49382;-25.924;28.194;2022-08-01T05:41:43;85832.50;;;16.63;36.22
40948;BME280;49382;-25.924;28.194;2022-08-01T05:44:09;85836.34;;;16.53;36.23
40948;BME280;49382;-25.924;28.194;2022-08-01T05:46:34;85837.31;;;17.22;35.55
40948;BME280;49382;-25.924;28.194;2022-08-01T05:48:59;85840.56;;;16.86;35.67
40948;BME280;49382;-25.924;28.194;2022-08-01T05:51:25;85840.94;;;16.73;35.57
40948;BME280;49382;-25.924;28.194;2022-08-01T05:53:50;85844.95;;;16.65;36.22
40948;BME280;49382;-25.924;28.194;2022-08-01T05:56:15;85847.33;;;16.95;35.92
40948;BME280;49382;-25.924;28.194;2022-08-01T05:58:40;85855.45;;;17.56;34.64
40948;BME280;49382;-25.924;28.194;2022-08-01T06:01:06;85857.62;;;17.36;35.40
40948;BME280;49382;-25.924;28.194;2022-08-01T06:03:31;85862.09;;;17.54;34.78
40948;BME280;49382;-25.924;28.194;2022-08-01T06:05:57;85866.07;;;18.12;34.57
40948;BME280;49382;-25.924;28.194;2022-08-01T06:08:22;85878.94;;;17.41;34.40
40948;BME280;49382;-25.924;28.194;2022-08-01T06:10:47;85875.52;;;17.84;35.29
40948;BME280;49382;-25.924;28.194;2022-08-01T06:13:12;85879.03;;;17.16;35.09
40948;BME280;49382;-25.924;28.194;2022-08-01T06:15:38;85879.01;;;17.67;34.47
40948;BME280;49382;-25.924;28.194;2022-08-01T06:18:03;85881.33;;;17.12;35.12
40948;BME280;49382;-25.924;28.194;2022-08-01T06:20:29;85883.04;;;17.62;34.70
40948;BME280;49382;-25.924;28.194;2022-08-01T06:22:55;85885.80;;;17.44;36.00
40948;BME280;49382;-25.924;28.194;2022-08-01T06:25:20;85880.57;;;17.30;35.68
40948;BME280;49382;-25.924;28.194;2022-08-01T06:27:45;85886.32;;;17.14;36.20
40948;BME280;49382;-25.924;28.194;2022-08-01T06:30:11;85883.47;;;17.17;35.93
40948;BME280;49382;-25.924;28.194;2022-08-01T06:32:36;85883.40;;;17.82;35.63
40948;BME280;49382;-25.924;28.194;2022-08-01T06:35:01;85883.03;;;18.60;34.21
40948;BME280;49382;-25.924;28.194;2022-08-01T06:37:29;85884.77;;;18.69;33.78
40948;BME280;49382;-25.924;28.194;2022-08-01T06:39:52;85889.70;;;18.26;34.21
40948;BME280;49382;-25.924;28.194;2022-08-01T06:42:17;85903.89;;;18.33;33.87
40948;BME280;49382;-25.924;28.194;2022-08-01T06:44:43;85906.26;;;18.96;33.01
40948;BME280;49382;-25.924;28.194;2022-08-01T06:47:08;85914.06;;;19.54;31.82
40948;BME280;49382;-25.924;28.194;2022-08-01T06:49:34;85909.63;;;18.85;32.94
40948;BME280;49382;-25.924;28.194;2022-08-01T06:51:59;85918.27;;;18.99;32.69
40948;BME280;49382;-25.924;28.194;2022-08-01T06:54:24;85907.70;;;18.78;33.15
40948;BME280;49382;-25.924;28.194;2022-08-01T06:56:50;85904.67;;;19.05;32.78
40948;BME280;49382;-25.924;28.194;2022-08-01T06:59:15;85913.43;;;19.25;32.38
40948;BME280;49382;-25.924;28.194;2022-08-01T07:01:41;85911.61;;;20.04;32.51
40948;BME280;49382;-25.924;28.194;2022-08-01T07:04:06;85916.99;;;20.76;32.70
40948;BME280;49382;-25.924;28.194;2022-08-01T07:06:32;85922.18;;;20.15;31.76
40948;BME280;49382;-25.924;28.194;2022-08-01T07:08:58;85924.57;;;19.50;32.09
40948;BME280;49382;-25.924;28.194;2022-08-01T07:11:24;85940.12;;;19.33;32.07
40948;BME280;49382;-25.924;28.194;2022-08-01T07:13:48;85931.12;;;19.75;31.86
40948;BME280;49382;-25.924;28.194;2022-08-01T07:16:13;85939.31;;;19.84;31.93
40948;BME280;49382;-25.924;28.194;2022-08-01T07:18:39;85951.14;;;20.50;31.35
40948;BME280;49382;-25.924;28.194;2022-08-01T07:21:04;85952.70;;;19.57;31.87
40948;BME280;49382;-25.924;28.194;2022-08-01T07:23:29;85945.89;;;19.94;31.31
40948;BME280;49382;-25.924;28.194;2022-08-01T07:25:55;85958.50;;;20.01;31.72
40948;BME280;49382;-25.924;28.194;2022-08-01T07:28:21;85945.05;;;19.76;31.86
40948;BME280;49382;-25.924;28.194;2022-08-01T07:30:46;85955.00;;;20.86;30.28
40948;BME280;49382;-25.924;28.194;2022-08-01T07:33:12;85955.86;;;20.32;30.03
40948;BME280;49382;-25.924;28.194;2022-08-01T07:35:38;85957.70;;;21.54;29.81
40948;BME280;49382;-25.924;28.194;2022-08-01T07:38:04;85947.56;;;21.21;30.18
40948;BME280;49382;-25.924;28.194;2022-08-01T07:40:30;85954.57;;;21.43;29.23
40948;BME280;49382;-25.924;28.194;2022-08-01T07:42:54;85952.29;;;21.66;28.86
40948;BME280;49382;-25.924;28.194;2022-08-01T07:45:20;85970.01;;;23.24;27.31
40948;BME280;49382;-25.924;28.194;2022-08-01T07:47:46;85963.61;;;21.35;28.53
40948;BME280;49382;-25.924;28.194;2022-08-01T07:50:11;85956.70;;;21.86;28.49
40948;BME280;49382;-25.924;28.194;2022-08-01T07:52:37;85959.21;;;22.07;28.21
40948;BME280;49382;-25.924;28.194;2022-08-01T07:55:03;85957.22;;;22.48;27.79
40948;BME280;49382;-25.924;28.194;2022-08-01T07:57:28;85957.60;;;22.35;28.03
40948;BME280;49382;-25.924;28.194;2022-08-01T07:59:53;85952.17;;;22.99;27.05
40948;BME280;49382;-25.924;28.194;2022-08-01T08:02:19;85953.26;;;23.54;26.50
40948;BME280;49382;-25.924;28.194;2022-08-01T08:04:44;85951.12;;;24.01;25.82
40948;BME280;49382;-25.924;28.194;2022-08-01T08:07:10;85947.32;;;23.72;26.14
40948;BME280;49382;-25.924;28.194;2022-08-01T08:09:36;85943.82;;;24.68;25.26
40948;BME280;49382;-25.924;28.194;2022-08-01T08:12:01;85942.47;;;23.83;25.47
40948;BME280;49382;-25.924;28.194;2022-08-01T08:14:26;85946.26;;;24.06;25.71
40948;BME280;49382;-25.924;28.194;2022-08-01T08:16:52;85944.15;;;24.50;25.23
40948;BME280;49382;-25.924;28.194;2022-08-01T08:19:17;85949.11;;;24.63;24.31
40948;BME280;49382;-25.924;28.194;2022-08-01T08:21:42;85943.82;;;25.00;24.40
40948;BME280;49382;-25.924;28.194;2022-08-01T08:24:08;85940.45;;;25.64;23.63
40948;BME280;49382;-25.924;28.194;2022-08-01T08:26:33;85940.59;;;26.19;23.78
40948;BME280;49382;-25.924;28.194;2022-08-01T08:28:58;85945.42;;;25.37;23.39
40948;BME280;49382;-25.924;28.194;2022-08-01T08:31:24;85950.36;;;26.48;22.60
40948;BME280;49382;-25.924;28.194;2022-08-01T08:33:50;85943.08;;;26.21;22.33
40948;BME280;49382;-25.924;28.194;2022-08-01T08:36:15;85940.23;;;25.82;22.52
40948;BME280;49382;-25.924;28.194;2022-08-01T08:38:41;85949.90;;;26.01;22.83
40948;BME280;49382;-25.924;28.194;2022-08-01T08:41:07;85941.24;;;25.61;23.10
40948;BME280;49382;-25.924;28.194;2022-08-01T08:43:32;85937.87;;;27.73;21.50
40948;BME280;49382;-25.924;28.194;2022-08-01T08:45:58;85941.22;;;26.51;22.13
40948;BME280;49382;-25.924;28.194;2022-08-01T08:48:23;85939.82;;;27.83;21.05
40948;BME280;49382;-25.924;28.194;2022-08-01T08:50:49;85938.61;;;28.41;20.84
40948;BME280;49382;-25.924;28.194;2022-08-01T08:53:16;85934.77;;;27.89;20.76
40948;BME280;49382;-25.924;28.194;2022-08-01T08:55:41;85934.70;;;29.90;19.43
40948;BME280;49382;-25.924;28.194;2022-08-01T08:58:06;85939.45;;;29.47;19.16
40948;BME280;49382;-25.924;28.194;2022-08-01T09:00:32;85932.49;;;29.98;19.21
40948;BME280;49382;-25.924;28.194;2022-08-01T09:02:57;85925.10;;;30.06;19.30
40948;BME280;49382;-25.924;28.194;2022-08-01T09:05:24;85920.26;;;30.18;18.81
40948;BME280;49382;-25.924;28.194;2022-08-01T09:07:48;85921.07;;;29.45;19.41
40948;BME280;49382;-25.924;28.194;2022-08-01T09:10:14;85923.54;;;29.72;19.31
40948;BME280;49382;-25.924;28.194;2022-08-01T09:12:39;85921.16;;;28.75;20.19
40948;BME280;49382;-25.924;28.194;2022-08-01T09:15:05;85922.15;;;30.42;19.86
40948;BME280;49382;-25.924;28.194;2022-08-01T09:19:56;85923.96;;;28.39;20.96
40948;BME280;49382;-25.924;28.194;2022-08-01T09:22:23;85925.87;;;28.00;21.38
40948;BME280;49382;-25.924;28.194;2022-08-01T09:27:17;85916.63;;;25.77;23.43
40948;BME280;49382;-25.924;28.194;2022-08-01T09:29:38;85930.99;;;27.17;22.92
40948;BME280;49382;-25.924;28.194;2022-08-01T09:32:05;85911.46;;;26.22;23.31
40948;BME280;49382;-25.924;28.194;2022-08-01T09:34:30;85917.35;;;25.60;23.63
40948;BME280;49382;-25.924;28.194;2022-08-01T09:36:56;85909.52;;;25.04;24.22
40948;BME280;49382;-25.924;28.194;2022-08-01T09:39:22;85908.82;;;24.38;25.99
40948;BME280;49382;-25.924;28.194;2022-08-01T09:41:47;85917.13;;;25.33;24.32
40948;BME280;49382;-25.924;28.194;2022-08-01T09:44:12;85914.59;;;25.36;25.10
40948;BME280;49382;-25.924;28.194;2022-08-01T09:49:04;85912.73;;;23.47;26.51
40948;BME280;49382;-25.924;28.194;2022-08-01T09:51:30;85905.18;;;22.66;27.72
40948;BME280;49382;-25.924;28.194;2022-08-01T09:53:53;85908.86;;;22.32;28.27
40948;BME280;49382;-25.924;28.194;2022-08-01T09:56:20;85890.40;;;23.55;27.70
40948;BME280;49382;-25.924;28.194;2022-08-01T09:58:50;85889.40;;;23.69;27.03
40948;BME280;49382;-25.924;28.194;2022-08-01T10:01:10;85889.69;;;23.29;27.01
40948;BME280;49382;-25.924;28.194;2022-08-01T10:03:36;85881.26;;;23.76;26.97
40948;BME280;49382;-25.924;28.194;2022-08-01T10:08:27;85881.43;;;23.59;27.46
40948;BME280;49382;-25.924;28.194;2022-08-01T10:13:18;85884.07;;;22.35;27.93
40948;BME280;49382;-25.924;28.194;2022-08-01T10:15:44;85878.24;;;22.87;27.42
40948;BME280;49382;-25.924;28.194;2022-08-01T10:18:09;85876.62;;;22.94;27.34
40948;BME280;49382;-25.924;28.194;2022-08-01T10:20:35;85871.98;;;22.44;28.26
40948;BME280;49382;-25.924;28.194;2022-08-01T10:23:02;85863.70;;;22.58;28.02
40948;BME280;49382;-25.924;28.194;2022-08-01T10:25:28;85866.41;;;21.81;28.51
40948;BME280;49382;-25.924;28.194;2022-08-01T10:27:52;85866.26;;;22.40;28.10
40948;BME280;49382;-25.924;28.194;2022-08-01T10:30:16;85860.26;;;22.02;28.17
40948;BME280;49382;-25.924;28.194;2022-08-01T10:32:42;85865.09;;;22.12;28.78
40948;BME280;49382;-25.924;28.194;2022-08-01T10:35:08;85858.20;;;22.73;27.53
40948;BME280;49382;-25.924;28.194;2022-08-01T10:37:34;85863.52;;;21.53;28.93
40948;BME280;49382;-25.924;28.194;2022-08-01T10:39:58;85857.48;;;21.68;28.25
40948;BME280;49382;-25.924;28.194;2022-08-01T10:42:23;85850.39;;;22.03;28.60
40948;BME280;49382;-25.924;28.194;2022-08-01T10:44:48;85855.32;;;21.80;28.90
40948;BME280;49382;-25.924;28.194;2022-08-01T10:47:15;85860.65;;;22.03;28.48
40948;BME280;49382;-25.924;28.194;2022-08-01T10:49:43;85856.73;;;21.25;30.18
40948;BME280;49382;-25.924;28.194;2022-08-01T10:52:03;85855.39;;;21.26;28.84
40948;BME280;49382;-25.924;28.194;2022-08-01T10:54:29;85859.93;;;21.33;28.60
40948;BME280;49382;-25.924;28.194;2022-08-01T10:56:54;85850.86;;;21.13;28.42
40948;BME280;49382;-25.924;28.194;2022-08-01T10:59:22;85845.75;;;20.77;28.86
40948;BME280;49382;-25.924;28.194;2022-08-01T11:04:12;85832.65;;;21.13;28.38
40948;BME280;49382;-25.924;28.194;2022-08-01T11:06:42;85840.61;;;21.59;28.12
40948;BME280;49382;-25.924;28.194;2022-08-01T11:09:05;85832.88;;;21.01;29.29
40948;BME280;49382;-25.924;28.194;2022-08-01T11:11:28;85831.38;;;20.47;29.55
40948;BME280;49382;-25.924;28.194;2022-08-01T11:16:26;85821.59;;;20.40;30.18
40948;BME280;49382;-25.924;28.194;2022-08-01T11:18:49;85825.28;;;20.79;29.37
40948;BME280;49382;-25.924;28.194;2022-08-01T11:21:09;85814.44;;;21.48;28.69
40948;BME280;49382;-25.924;28.194;2022-08-01T11:26:06;85822.10;;;21.18;28.62
40948;BME280;49382;-25.924;28.194;2022-08-01T11:28:26;85808.58;;;20.49;28.45
40948;BME280;49382;-25.924;28.194;2022-08-01T11:30:51;85806.05;;;20.73;29.04
40948;BME280;49382;-25.924;28.194;2022-08-01T11:33:17;85810.31;;;20.70;28.07
40948;BME280;49382;-25.924;28.194;2022-08-01T11:40:32;85808.12;;;20.57;28.64
40948;BME280;49382;-25.924;28.194;2022-08-01T11:47:49;85789.31;;;20.11;29.79
40948;BME280;49382;-25.924;28.194;2022-08-01T11:52:38;85793.88;;;20.14;29.29
40948;BME280;49382;-25.924;28.194;2022-08-01T11:55:08;85791.83;;;20.34;28.79
40948;BME280;49382;-25.924;28.194;2022-08-01T11:57:30;85784.36;;;20.34;29.01
40948;BME280;49382;-25.924;28.194;2022-08-01T11:59:56;85785.87;;;20.08;29.11
40948;BME280;49382;-25.924;28.194;2022-08-01T12:02:22;85795.21;;;19.94;29.55
40948;BME280;49382;-25.924;28.194;2022-08-01T12:04:47;85796.94;;;19.63;29.02
40948;BME280;49382;-25.924;28.194;2022-08-01T12:07:13;85787.99;;;19.52;29.58
40948;BME280;49382;-25.924;28.194;2022-08-01T12:09:35;85789.10;;;19.56;29.88
40948;BME280;49382;-25.924;28.194;2022-08-01T12:12:00;85782.09;;;20.21;29.24
40948;BME280;49382;-25.924;28.194;2022-08-01T12:14:25;85787.09;;;19.92;29.84
40948;BME280;49382;-25.924;28.194;2022-08-01T12:16:52;85779.27;;;19.78;30.41
40948;BME280;49382;-25.924;28.194;2022-08-01T12:19:20;85778.03;;;19.81;30.88
40948;BME280;49382;-25.924;28.194;2022-08-01T12:21:41;85773.44;;;20.17;30.53
40948;BME280;49382;-25.924;28.194;2022-08-01T12:24:07;85777.32;;;19.25;30.62
40948;BME280;49382;-25.924;28.194;2022-08-01T12:26:39;85767.72;;;19.14;31.36
40948;BME280;49382;-25.924;28.194;2022-08-01T12:28:56;85771.75;;;19.78;30.36
40948;BME280;49382;-25.924;28.194;2022-08-01T12:33:47;85776.50;;;19.42;30.52
40948;BME280;49382;-25.924;28.194;2022-08-01T12:36:11;85767.42;;;19.97;30.03
40948;BME280;49382;-25.924;28.194;2022-08-01T12:38:37;85770.80;;;19.62;30.47
40948;BME280;49382;-25.924;28.194;2022-08-01T12:41:03;85763.92;;;20.28;29.39
40948;BME280;49382;-25.924;28.194;2022-08-01T12:43:32;85755.13;;;20.56;29.50
40948;BME280;49382;-25.924;28.194;2022-08-01T12:45:53;85772.19;;;19.84;30.25
40948;BME280;49382;-25.924;28.194;2022-08-01T12:48:19;85755.67;;;19.63;30.80
40948;BME280;49382;-25.924;28.194;2022-08-01T12:50:46;85758.47;;;21.00;29.36
40948;BME280;49382;-25.924;28.194;2022-08-01T12:53:11;85750.82;;;19.93;29.94
40948;BME280;49382;-25.924;28.194;2022-08-01T12:55:43;85747.64;;;19.55;30.04
40948;BME280;49382;-25.924;28.194;2022-08-01T12:58:05;85756.35;;;20.54;29.23
40948;BME280;49382;-25.924;28.194;2022-08-01T13:00:26;85740.60;;;18.73;30.62
40948;BME280;49382;-25.924;28.194;2022-08-01T13:05:16;85735.30;;;19.19;30.04
40948;BME280;49382;-25.924;28.194;2022-08-01T13:07:43;85732.92;;;19.88;29.40
40948;BME280;49382;-25.924;28.194;2022-08-01T13:10:06;85730.91;;;19.54;29.68
40948;BME280;49382;-25.924;28.194;2022-08-01T13:12:30;85732.08;;;18.71;30.89